createdAt,value
2018-12-31T00:02:22.716Z,53.27
2018-12-31T00:04:56.825Z,48.40
2018-12-31T00:07:31.483Z,46.30
2018-12-31T00:10:06.398Z,41.80
2018-12-31T00:12:39.308Z,49.33
2018-12-31T00:15:14.524Z,41.77
2018-12-31T00:17:47.940Z,54.80
2018-12-31T00:20:21.768Z,59.40
2018-12-31T00:22:56.804Z,73.72
2018-12-31T00:25:33.197Z,69.13
2018-12-31T00:28:06.604Z,61.67
2018-12-31T00:30:40.527Z,71.23
2018-12-31T00:33:16.466Z,62.43
2018-12-31T00:35:50.304Z,50.47
2018-12-31T00:38:23.349Z,57.83
2018-12-31T00:40:59.539Z,50.03
2018-12-31T00:43:33.107Z,35.43
2018-12-31T00:46:06.216Z,37.87
2018-12-31T00:48:39.551Z,37.00
2018-12-31T00:51:12.491Z,32.63
2018-12-31T00:53:46.200Z,30.27
2018-12-31T00:56:20.349Z,31.03
2018-12-31T00:58:54.324Z,26.80
2018-12-31T01:01:27.495Z,27.07
2018-12-31T01:04:00.833Z,25.63
2018-12-31T01:06:33.731Z,29.67
2018-12-31T01:09:08.631Z,28.20
2018-12-31T01:11:42.029Z,25.30
2018-12-31T01:14:15.255Z,22.77
2018-12-31T01:16:48.298Z,23.53
2018-12-31T01:19:21.724Z,23.87
2018-12-31T01:21:54.757Z,22.37
2018-12-31T01:24:28.039Z,22.67
2018-12-31T01:27:01.722Z,21.43
2018-12-31T01:29:34.888Z,22.77
2018-12-31T01:32:07.760Z,21.17
2018-12-31T01:34:43.516Z,22.23
2018-12-31T01:37:16.483Z,23.10
2018-12-31T01:39:49.627Z,23.20
2018-12-31T01:42:23.197Z,28.50
2018-12-31T01:44:56.135Z,24.70
2018-12-31T01:47:30.544Z,23.83
2018-12-31T01:50:04.510Z,29.10
2018-12-31T01:52:37.532Z,35.88
2018-12-31T01:55:10.561Z,29.00
2018-12-31T01:57:45.641Z,32.00
2018-12-31T02:00:17.766Z,30.20
2018-12-31T02:02:50.719Z,40.87
2018-12-31T02:05:25.196Z,55.17
2018-12-31T02:07:58.072Z,49.53
2018-12-31T02:10:30.913Z,57.13
2018-12-31T02:13:04.298Z,51.03
2018-12-31T02:15:37.259Z,57.08
2018-12-31T02:18:10.251Z,50.07
2018-12-31T02:20:44.318Z,50.93
2018-12-31T02:23:17.500Z,53.50
2018-12-31T02:25:51.242Z,61.17
2018-12-31T02:28:25.013Z,43.23
2018-12-31T02:30:59.981Z,49.13
2018-12-31T02:33:35.159Z,42.83
2018-12-31T02:36:09.540Z,49.17
2018-12-31T02:38:43.395Z,37.33
2018-12-31T02:41:17.850Z,34.50
2018-12-31T02:43:52.373Z,41.37
2018-12-31T02:46:25.243Z,50.13
2018-12-31T02:48:59.168Z,33.07
2018-12-31T02:51:32.581Z,37.33
2018-12-31T02:54:07.338Z,34.90
2018-12-31T02:56:41.053Z,36.40
2018-12-31T02:59:15.584Z,32.00
2018-12-31T03:01:49.138Z,37.57
2018-12-31T03:04:22.034Z,43.20
2018-12-31T03:06:55.987Z,58.20
2018-12-31T03:09:28.829Z,43.27
2018-12-31T03:12:01.642Z,52.57
2018-12-31T03:14:35.086Z,52.00
2018-12-31T03:17:08.007Z,56.90
2018-12-31T03:19:40.795Z,63.27
2018-12-31T03:22:14.847Z,54.30
2018-12-31T03:24:47.801Z,44.90
2018-12-31T03:27:21.409Z,65.70
2018-12-31T03:29:54.793Z,50.57
2018-12-31T03:32:27.817Z,43.57
2018-12-31T03:35:01.547Z,38.40
2018-12-31T03:37:35.960Z,64.40
2018-12-31T03:40:09.016Z,48.47
2018-12-31T03:42:42.002Z,42.47
2018-12-31T03:45:17.511Z,48.67
2018-12-31T03:47:52.853Z,51.13
2018-12-31T03:50:29.335Z,46.40
2018-12-31T03:53:03.122Z,44.90
2018-12-31T03:55:36.198Z,47.70
2018-12-31T03:58:09.126Z,60.13
2018-12-31T04:00:46.791Z,50.90
2018-12-31T04:03:20.580Z,43.80
2018-12-31T04:05:54.545Z,38.70
2018-12-31T04:08:34.397Z,52.60
2018-12-31T04:11:07.364Z,47.07
2018-12-31T04:13:42.623Z,50.67
2018-12-31T04:16:16.730Z,64.23
2018-12-31T04:18:52.049Z,58.73
2018-12-31T04:21:25.076Z,57.27
2018-12-31T04:23:58.706Z,52.10
2018-12-31T04:26:31.650Z,59.43
2018-12-31T04:29:04.400Z,57.37
2018-12-31T04:31:37.408Z,59.33
2018-12-31T04:34:10.147Z,61.58
2018-12-31T04:36:45.027Z,60.20
2018-12-31T04:39:18.617Z,60.10
2018-12-31T04:41:51.678Z,53.53
2018-12-31T04:44:25.546Z,61.50
2018-12-31T04:47:01.886Z,55.20
2018-12-31T04:49:34.859Z,71.47
2018-12-31T04:52:08.278Z,60.90
2018-12-31T04:54:41.044Z,57.93
2018-12-31T04:57:14.378Z,55.50
2018-12-31T04:59:47.831Z,52.13
2018-12-31T05:02:20.865Z,59.25
2018-12-31T05:04:53.778Z,57.75
2018-12-31T05:07:27.336Z,56.90
2018-12-31T05:10:00.237Z,58.83
2018-12-31T05:12:33.229Z,67.03
2018-12-31T05:15:07.764Z,57.87
2018-12-31T05:17:40.615Z,34.47
2018-12-31T05:20:16.084Z,50.93
2018-12-31T05:22:51.334Z,59.80
2018-12-31T05:25:24.261Z,61.13
2018-12-31T05:27:57.217Z,56.50
2018-12-31T05:30:31.576Z,51.47
2018-12-31T05:33:04.497Z,64.93
2018-12-31T05:35:37.524Z,56.10
2018-12-31T05:38:12.630Z,54.83
2018-12-31T05:40:45.759Z,71.10
2018-12-31T05:43:18.847Z,64.60
2018-12-31T05:45:52.772Z,53.80
2018-12-31T05:48:25.771Z,64.97
2018-12-31T05:50:58.510Z,60.33
2018-12-31T05:53:31.990Z,65.57
2018-12-31T05:56:04.964Z,71.87
2018-12-31T05:58:38.338Z,48.37
2018-12-31T06:01:13.769Z,52.13
2018-12-31T06:03:47.804Z,53.20
2018-12-31T06:06:20.820Z,65.73
2018-12-31T06:08:56.218Z,52.97
2018-12-31T06:11:29.273Z,70.77
2018-12-31T06:14:02.504Z,70.07
2018-12-31T06:16:37.511Z,55.13
2018-12-31T06:19:10.667Z,66.93
2018-12-31T06:21:44.724Z,68.10
2018-12-31T06:24:17.966Z,60.00
2018-12-31T06:26:50.851Z,68.22
2018-12-31T06:29:24.743Z,48.10
2018-12-31T06:31:57.664Z,52.13
2018-12-31T06:34:31.056Z,70.87
2018-12-31T06:37:04.028Z,64.20
2018-12-31T06:39:37.063Z,60.47
2018-12-31T06:42:10.349Z,62.00
2018-12-31T06:44:43.703Z,61.40
2018-12-31T06:47:16.577Z,62.60
2018-12-31T06:49:53.626Z,61.23
2018-12-31T06:52:26.920Z,51.70
2018-12-31T06:54:59.882Z,56.30
2018-12-31T06:57:34.249Z,53.33
2018-12-31T07:00:07.931Z,53.53
2018-12-31T07:02:40.852Z,55.40
2018-12-31T07:05:15.312Z,64.23
2018-12-31T07:07:48.259Z,58.73
2018-12-31T07:10:21.279Z,58.90
2018-12-31T07:12:54.219Z,55.80
2018-12-31T07:15:27.241Z,53.07
2018-12-31T07:18:00.202Z,53.63
2018-12-31T07:20:33.602Z,51.47
2018-12-31T07:23:06.593Z,50.97
2018-12-31T07:25:40.625Z,51.03
2018-12-31T07:28:14.034Z,51.80
2018-12-31T07:30:47.001Z,65.75
2018-12-31T07:33:19.995Z,56.00
2018-12-31T07:35:53.272Z,53.70
2018-12-31T07:38:26.364Z,54.07
2018-12-31T07:41:00.028Z,72.07
2018-12-31T07:43:33.423Z,62.43
2018-12-31T07:46:06.312Z,57.23
2018-12-31T07:48:40.117Z,56.10
2018-12-31T07:51:15.357Z,54.67
2018-12-31T07:53:48.720Z,70.47
2018-12-31T07:56:22.609Z,57.37
2018-12-31T07:58:59.408Z,65.18
2018-12-31T08:01:32.505Z,54.17
2018-12-31T08:04:05.496Z,63.83
2018-12-31T08:06:40.271Z,54.27
2018-12-31T08:09:13.745Z,63.27
2018-12-31T08:11:48.454Z,51.50
2018-12-31T08:14:22.834Z,50.67
2018-12-31T08:16:58.687Z,46.47
2018-12-31T08:19:31.852Z,45.03
2018-12-31T08:22:05.712Z,51.67
2018-12-31T08:24:38.570Z,49.53
2018-12-31T08:27:12.430Z,50.13
2018-12-31T08:29:45.361Z,51.07
2018-12-31T08:32:26.464Z,54.13
2018-12-31T08:35:01.019Z,52.63
2018-12-31T08:37:33.985Z,55.10
2018-12-31T08:40:08.399Z,54.03
2018-12-31T08:42:41.570Z,57.97
2018-12-31T08:45:16.276Z,70.30
2018-12-31T08:47:49.429Z,60.73
2018-12-31T08:50:24.597Z,57.80
2018-12-31T08:52:57.677Z,60.07
2018-12-31T08:55:32.029Z,61.10
2018-12-31T08:58:06.068Z,60.97
2018-12-31T09:00:42.732Z,55.77
2018-12-31T09:03:16.668Z,56.60
2018-12-31T09:05:51.771Z,54.90
2018-12-31T09:08:26.717Z,56.27
2018-12-31T09:10:59.885Z,55.17
2018-12-31T09:13:34.980Z,53.30
2018-12-31T09:16:07.852Z,54.93
2018-12-31T09:18:41.145Z,52.87
2018-12-31T09:21:14.621Z,66.50
2018-12-31T09:23:48.033Z,56.73
2018-12-31T09:26:23.043Z,57.00
2018-12-31T09:28:57.441Z,54.40
2018-12-31T09:31:31.786Z,55.73
2018-12-31T09:34:06.076Z,69.10
2018-12-31T09:36:39.968Z,55.93
2018-12-31T09:39:13.818Z,58.30
2018-12-31T09:41:48.812Z,65.03
2018-12-31T09:44:29.106Z,57.53
2018-12-31T09:47:03.032Z,58.03
2018-12-31T09:49:37.010Z,62.83
2018-12-31T09:52:10.560Z,54.33
2018-12-31T09:54:43.526Z,66.47
2018-12-31T09:57:17.323Z,63.35
2018-12-31T09:59:51.527Z,54.37
2018-12-31T10:02:24.661Z,50.47
2018-12-31T10:04:58.317Z,51.40
2018-12-31T10:07:31.815Z,50.47
2018-12-31T10:10:06.624Z,54.57
2018-12-31T10:12:39.575Z,51.03
2018-12-31T10:15:17.229Z,60.95
2018-12-31T10:17:51.346Z,63.42
2018-12-31T10:20:24.985Z,51.33
2018-12-31T10:22:59.603Z,51.30
2018-12-31T10:25:33.443Z,51.13
2018-12-31T10:28:07.306Z,54.33
2018-12-31T10:30:40.427Z,63.87
2018-12-31T10:33:14.290Z,51.27
2018-12-31T10:35:48.434Z,45.43
2018-12-31T10:38:23.008Z,45.43
2018-12-31T10:40:56.155Z,44.07
2018-12-31T10:43:31.879Z,43.60
2018-12-31T10:46:05.201Z,45.10
2018-12-31T10:48:38.261Z,47.00
2018-12-31T10:51:11.793Z,47.23
2018-12-31T10:53:45.244Z,46.80
2018-12-31T10:56:20.036Z,48.17
2018-12-31T10:58:54.071Z,51.23
2018-12-31T11:01:27.437Z,59.20
2018-12-31T11:04:02.740Z,59.80
2018-12-31T11:06:38.854Z,56.97
2018-12-31T11:09:12.172Z,58.87
2018-12-31T11:11:50.596Z,61.43
2018-12-31T11:14:26.134Z,66.23
2018-12-31T11:17:01.846Z,66.60
2018-12-31T11:19:35.938Z,66.13
2018-12-31T11:22:09.146Z,63.97
2018-12-31T11:24:42.127Z,68.03
2018-12-31T11:27:15.185Z,68.20
2018-12-31T11:29:48.449Z,65.63
2018-12-31T11:32:21.511Z,76.82
2018-12-31T11:34:55.397Z,60.10
2018-12-31T11:37:34.854Z,58.77
2018-12-31T11:40:10.655Z,54.70
2018-12-31T11:42:46.406Z,58.33
2018-12-31T11:45:19.263Z,58.10
2018-12-31T11:47:52.447Z,63.50
2018-12-31T11:50:25.637Z,62.53
2018-12-31T11:53:00.453Z,59.03
2018-12-31T11:55:33.795Z,57.57
2018-12-31T11:58:06.898Z,57.67
2018-12-31T12:00:40.804Z,56.70
2018-12-31T12:03:14.348Z,58.50
2018-12-31T12:05:48.240Z,56.40
2018-12-31T12:08:21.322Z,56.73
2018-12-31T12:10:54.828Z,68.95
2018-12-31T12:13:29.445Z,54.17
2018-12-31T12:16:04.042Z,58.60
2018-12-31T12:18:37.299Z,70.53
2018-12-31T12:21:10.884Z,56.23
2018-12-31T12:23:49.654Z,55.57
2018-12-31T12:26:22.600Z,54.00
2018-12-31T12:28:57.120Z,52.97
2018-12-31T12:31:34.115Z,51.37
2018-12-31T12:34:08.691Z,52.30
2018-12-31T12:36:42.992Z,49.70
2018-12-31T12:39:18.388Z,48.73
2018-12-31T12:42:10.547Z,46.93
2018-12-31T12:44:45.522Z,48.30
2018-12-31T12:47:23.714Z,48.53
2018-12-31T12:50:02.637Z,57.17
2018-12-31T12:52:35.473Z,46.40
2018-12-31T12:55:11.599Z,47.63
2018-12-31T12:57:44.531Z,44.33
2018-12-31T13:00:17.725Z,53.20
2018-12-31T13:02:52.219Z,43.33
2018-12-31T13:05:25.760Z,42.73
2018-12-31T13:07:58.708Z,43.47
2018-12-31T13:10:41.283Z,42.93
2018-12-31T13:13:17.233Z,50.85
2018-12-31T13:15:53.765Z,43.77
2018-12-31T13:18:31.837Z,44.20
2018-12-31T13:21:13.058Z,44.37
2018-12-31T13:23:48.133Z,43.50
2018-12-31T13:26:22.405Z,43.57
2018-12-31T13:28:55.972Z,41.93
2018-12-31T13:31:29.858Z,45.33
2018-12-31T13:34:05.973Z,41.60
2018-12-31T13:36:38.844Z,42.73
2018-12-31T13:39:14.621Z,42.73
2018-12-31T13:41:47.688Z,41.83
2018-12-31T13:44:23.022Z,43.00
2018-12-31T13:46:57.544Z,44.03
2018-12-31T13:49:32.578Z,44.03
2018-12-31T13:52:07.982Z,41.87
2018-12-31T13:54:40.893Z,42.27
2018-12-31T13:57:13.877Z,41.63
2018-12-31T13:59:48.801Z,42.60
2018-12-31T14:02:21.852Z,43.50
2018-12-31T14:04:56.723Z,39.23
2018-12-31T14:07:31.504Z,42.90
2018-12-31T14:10:05.305Z,42.53
2018-12-31T14:12:38.339Z,41.43
2018-12-31T14:15:17.102Z,40.80
2018-12-31T14:17:52.593Z,47.55
2018-12-31T14:20:25.424Z,39.37
2018-12-31T14:22:59.806Z,38.60
2018-12-31T14:25:35.827Z,36.77
2018-12-31T14:28:10.037Z,38.60
2018-12-31T14:30:43.833Z,37.90
2018-12-31T14:33:16.792Z,38.93
2018-12-31T14:35:51.239Z,38.53
2018-12-31T14:38:25.844Z,38.90
2018-12-31T14:41:00.230Z,40.60
2018-12-31T14:43:34.623Z,45.97
2018-12-31T14:46:08.947Z,45.60
2018-12-31T14:48:44.589Z,39.47
2018-12-31T14:51:20.263Z,38.87
2018-12-31T14:53:53.865Z,37.67
2018-12-31T14:56:28.875Z,36.47
2018-12-31T14:59:01.843Z,36.03
2018-12-31T15:01:35.086Z,38.40
2018-12-31T15:04:09.472Z,37.33
2018-12-31T15:06:42.413Z,37.87
2018-12-31T15:09:17.701Z,35.33
2018-12-31T15:11:52.419Z,37.50
2018-12-31T15:14:25.484Z,37.90
2018-12-31T15:17:00.845Z,38.73
2018-12-31T15:19:34.784Z,37.47
2018-12-31T15:22:09.316Z,37.03
2018-12-31T15:24:44.923Z,37.00
2018-12-31T15:27:17.842Z,45.63
2018-12-31T15:29:52.925Z,36.73
2018-12-31T15:32:28.115Z,37.13
2018-12-31T15:35:01.984Z,37.23
2018-12-31T15:37:40.013Z,43.17
2018-12-31T15:40:15.302Z,37.57
2018-12-31T15:42:49.242Z,37.57
2018-12-31T15:45:22.803Z,36.27
2018-12-31T15:48:03.415Z,35.57
2018-12-31T15:50:37.919Z,35.07
2018-12-31T15:53:11.891Z,35.00
2018-12-31T15:55:44.924Z,39.95
2018-12-31T15:58:18.768Z,33.33
2018-12-31T16:00:51.688Z,38.70
2018-12-31T16:03:27.818Z,37.80
2018-12-31T16:06:02.420Z,35.60
2018-12-31T16:08:37.714Z,35.27
2018-12-31T16:11:12.668Z,42.40
2018-12-31T16:13:46.764Z,36.07
2018-12-31T16:16:19.916Z,37.80
2018-12-31T16:18:53.511Z,45.63
2018-12-31T16:21:28.380Z,35.07
2018-12-31T16:24:05.659Z,39.95
2018-12-31T16:26:40.075Z,32.70
2018-12-31T16:29:12.975Z,34.93
2018-12-31T16:31:47.861Z,34.53
2018-12-31T16:34:22.573Z,34.13
2018-12-31T16:36:57.847Z,36.77
2018-12-31T16:39:32.735Z,33.97
2018-12-31T16:42:07.706Z,36.83
2018-12-31T16:44:41.337Z,37.30
2018-12-31T16:47:15.591Z,36.93
2018-12-31T16:49:48.525Z,38.13
2018-12-31T16:52:23.580Z,39.10
2018-12-31T16:54:59.646Z,40.20
2018-12-31T16:57:34.343Z,37.80
2018-12-31T17:00:09.983Z,38.73
2018-12-31T17:02:51.737Z,39.47
2018-12-31T17:05:25.769Z,40.40
2018-12-31T17:08:05.667Z,39.03
2018-12-31T17:10:39.436Z,41.43
2018-12-31T17:13:13.077Z,39.80
2018-12-31T17:15:48.425Z,39.70
2018-12-31T17:18:24.412Z,39.50
2018-12-31T17:20:57.987Z,36.87
2018-12-31T17:23:31.861Z,40.37
2018-12-31T17:26:04.783Z,39.60
2018-12-31T17:28:38.798Z,40.20
2018-12-31T17:31:12.655Z,38.90
2018-12-31T17:33:46.145Z,41.87
2018-12-31T17:36:19.419Z,37.13
2018-12-31T17:38:52.362Z,40.83
2018-12-31T17:41:25.365Z,40.73
2018-12-31T17:43:59.624Z,42.90
2018-12-31T17:46:32.598Z,44.57
2018-12-31T17:49:07.068Z,43.20
2018-12-31T17:51:42.776Z,43.73
2018-12-31T17:54:18.253Z,61.03
2018-12-31T17:56:56.042Z,45.30
2018-12-31T17:59:30.258Z,42.97
2018-12-31T18:02:03.871Z,43.00
2018-12-31T18:04:38.249Z,43.57
2018-12-31T18:07:12.397Z,43.90
2018-12-31T18:09:45.408Z,43.10
2018-12-31T18:12:20.783Z,43.47
2018-12-31T18:14:54.271Z,43.40
2018-12-31T18:17:35.855Z,45.40
2018-12-31T18:20:11.937Z,42.73
2018-12-31T18:22:45.203Z,52.40
2018-12-31T18:25:19.540Z,47.40
2018-12-31T18:27:53.300Z,46.20
2018-12-31T18:30:27.593Z,42.90
2018-12-31T18:33:01.653Z,45.93
2018-12-31T18:35:35.449Z,46.30
2018-12-31T18:38:13.761Z,46.03
2018-12-31T18:40:50.181Z,46.60
2018-12-31T18:43:24.845Z,41.83
2018-12-31T18:46:01.995Z,41.43
2018-12-31T18:48:36.721Z,42.27
2018-12-31T18:51:12.021Z,47.00
2018-12-31T18:53:45.143Z,39.73
2018-12-31T18:56:21.686Z,39.53
2018-12-31T18:58:56.135Z,40.40
2018-12-31T19:01:33.480Z,38.80
2018-12-31T19:04:10.189Z,40.60
2018-12-31T19:06:43.144Z,40.20
2018-12-31T19:09:17.508Z,37.60
2018-12-31T19:11:53.205Z,40.33
2018-12-31T19:14:26.803Z,42.33
2018-12-31T19:17:02.227Z,40.90
2018-12-31T19:19:35.325Z,40.97
2018-12-31T19:22:09.406Z,39.93
2018-12-31T19:24:44.592Z,38.83
2018-12-31T19:27:18.898Z,39.07
2018-12-31T19:29:56.527Z,38.10
2018-12-31T19:32:32.149Z,39.40
2018-12-31T19:35:08.773Z,37.67
2018-12-31T19:37:42.997Z,38.13
2018-12-31T19:40:16.818Z,42.95
2018-12-31T19:42:53.816Z,37.30
2018-12-31T19:45:28.387Z,39.63
2018-12-31T19:48:02.851Z,38.50
2018-12-31T19:50:38.435Z,38.27
2018-12-31T19:53:11.429Z,39.37
2018-12-31T19:55:46.406Z,40.83
2018-12-31T19:58:23.506Z,39.27
2018-12-31T20:00:57.296Z,39.93
2018-12-31T20:03:38.495Z,40.27
2018-12-31T20:06:17.481Z,39.00
2018-12-31T20:08:53.014Z,40.17
2018-12-31T20:11:27.314Z,37.93
2018-12-31T20:14:01.801Z,39.17
2018-12-31T20:16:35.594Z,37.67
2018-12-31T20:19:12.208Z,37.30
2018-12-31T20:21:45.908Z,38.83
2018-12-31T20:24:21.675Z,36.83
2018-12-31T20:26:55.992Z,37.07
2018-12-31T20:29:30.969Z,37.37
2018-12-31T20:32:06.894Z,34.73
2018-12-31T20:34:39.780Z,36.00
2018-12-31T20:37:15.864Z,36.23
2018-12-31T20:39:48.825Z,36.13
2018-12-31T20:42:33.650Z,36.27
2018-12-31T20:45:18.794Z,38.42
2018-12-31T20:48:01.454Z,39.25
2018-12-31T20:50:38.443Z,35.50
2018-12-31T20:53:21.121Z,36.80
2018-12-31T20:56:00.794Z,38.23
2018-12-31T20:58:43.400Z,38.23
2018-12-31T21:01:18.145Z,38.93
2018-12-31T21:03:51.068Z,37.10
2018-12-31T21:06:24.760Z,33.83
2018-12-31T21:08:58.027Z,36.50
2018-12-31T21:11:33.829Z,34.70
2018-12-31T21:14:08.715Z,34.77
2018-12-31T21:16:42.354Z,35.93
2018-12-31T21:19:15.304Z,37.13
2018-12-31T21:21:50.283Z,36.07
2018-12-31T21:24:23.098Z,39.93
2018-12-31T21:27:00.653Z,39.50
2018-12-31T21:29:37.320Z,41.17
2018-12-31T21:32:11.054Z,39.70
2018-12-31T21:34:45.121Z,37.70
2018-12-31T21:37:18.698Z,43.22
2018-12-31T21:39:54.532Z,37.70
2018-12-31T21:42:32.233Z,36.67
2018-12-31T21:45:07.603Z,35.97
2018-12-31T21:47:43.193Z,36.13
2018-12-31T21:50:18.371Z,35.77
2018-12-31T21:52:52.406Z,36.20
2018-12-31T21:55:29.099Z,34.67
2018-12-31T21:58:03.387Z,37.50
2018-12-31T22:00:37.496Z,38.80
2018-12-31T22:03:13.546Z,37.57
2018-12-31T22:05:47.367Z,37.60
2018-12-31T22:08:23.444Z,40.07
2018-12-31T22:10:57.390Z,40.13
2018-12-31T22:13:31.366Z,40.67
2018-12-31T22:16:07.155Z,40.67
2018-12-31T22:18:42.841Z,41.80
2018-12-31T22:21:19.521Z,42.90
2018-12-31T22:23:52.354Z,42.13
2018-12-31T22:26:25.284Z,43.87
2018-12-31T22:29:01.102Z,44.20
2018-12-31T22:31:37.812Z,46.13
2018-12-31T22:34:11.777Z,47.00
2018-12-31T22:36:45.324Z,46.57
2018-12-31T22:39:20.313Z,46.90
2018-12-31T22:41:56.477Z,54.30
2018-12-31T22:44:29.507Z,49.30
2018-12-31T22:47:03.377Z,47.87
2018-12-31T22:49:37.408Z,48.13
2018-12-31T22:52:11.407Z,49.63
2018-12-31T22:54:45.698Z,57.67
2018-12-31T22:57:24.591Z,53.30
2018-12-31T22:59:58.793Z,51.47
2018-12-31T23:02:31.570Z,55.73
2018-12-31T23:05:09.601Z,486.53
2018-12-31T23:07:45.265Z,316.47
2018-12-31T23:10:20.029Z,196.97
2018-12-31T23:12:53.583Z,140.93
2018-12-31T23:15:29.998Z,172.30
2018-12-31T23:18:08.473Z,72.53
2018-12-31T23:20:44.795Z,160.07
2018-12-31T23:23:20.305Z,161.53
2018-12-31T23:26:03.208Z,97.97
2018-12-31T23:28:41.368Z,119.97
2018-12-31T23:31:17.123Z,108.13
2018-12-31T23:33:53.064Z,121.50
2018-12-31T23:36:29.201Z,149.02
2018-12-31T23:39:08.506Z,153.23
2018-12-31T23:41:42.906Z,178.13
2018-12-31T23:44:17.679Z,200.20
2018-12-31T23:46:54.717Z,223.27
2018-12-31T23:49:29.567Z,237.63
2018-12-31T23:52:10.825Z,236.43
2018-12-31T23:54:44.866Z,241.00
2018-12-31T23:57:21.069Z,245.93
